Time;durP1;ratioP1;P1;durP2;ratioP2;P2;SDS_P1;SDS_P2;PMS_P1;PMS_P2;Temp;Humidity;BMP_temperature;BMP_pressure;BME280_temperature;BME280_humidity;BME280_pressure;Samples;Min_cycle;Max_cycle;Signal;HPM_P1;HPM_P2
2023/10/16 00:02:27;;;;;;;6.20;2.00;;;6.80;99.90;;;;;;4970346;28;20247;-77
2023/10/16 00:05:08;;;;;;;6.20;2.13;;;6.80;99.90;;;;;;4972725;28;20309;-78
2023/10/16 00:07:43;;;;;;;5.33;2.20;;;6.80;99.90;;;;;;4971596;28;20221;-78
2023/10/16 00:10:21;;;;;;;6.13;2.50;;;6.90;99.90;;;;;;4971462;28;20199;-77
2023/10/16 00:12:54;;;;;;;7.23;2.20;;;6.90;99.90;;;;;;4972717;28;20643;-76
2023/10/16 00:16:08;;;;;;;5.33;2.20;;;6.90;99.90;;;;;;4956019;28;20204;-79
2023/10/16 00:18:37;;;;;;;4.77;2.10;;;6.90;99.90;;;;;;4972115;28;20225;-78
2023/10/16 00:21:10;;;;;;;3.80;1.90;;;7.20;99.90;;;;;;4971250;28;20232;-79
2023/10/16 00:23:49;;;;;;;8.07;2.17;;;6.90;99.90;;;;;;4971600;28;20194;-74
2023/10/16 00:26:21;;;;;;;6.30;2.00;;;7.20;99.90;;;;;;4970941;28;20240;-76
2023/10/16 00:29:22;;;;;;;7.87;1.97;;;6.90;99.90;;;;;;4971589;28;20180;-76
2023/10/16 00:31:58;;;;;;;6.43;2.00;;;7.10;99.90;;;;;;4970702;28;20229;-76
2023/10/16 00:34:35;;;;;;;6.20;2.00;;;6.90;99.90;;;;;;4972497;28;20612;-76
2023/10/16 00:37:07;;;;;;;5.80;1.83;;;6.80;99.90;;;;;;4972169;28;20216;-76
2023/10/16 00:39:52;;;;;;;7.43;2.00;;;7.10;99.90;;;;;;4972495;28;20202;-76
2023/10/16 00:42:20;;;;;;;6.37;2.10;;;6.70;99.90;;;;;;4971231;28;20203;-76
2023/10/16 00:45:00;;;;;;;4.90;1.70;;;6.90;99.90;;;;;;4972185;28;20217;-76
2023/10/16 00:47:44;;;;;;;5.00;2.07;;;6.70;99.90;;;;;;4957196;28;20684;-77
2023/10/16 00:50:14;;;;;;;4.30;1.97;;;6.70;99.90;;;;;;4972240;28;20195;-74
2023/10/16 00:52:42;;;;;;;7.43;2.10;;;6.80;99.90;;;;;;4971819;28;20636;-77
2023/10/16 00:55:12;;;;;;;5.50;2.00;;;6.90;99.90;;;;;;4970891;28;20204;-77
2023/10/16 00:57:55;;;;;;;5.93;1.90;;;6.80;99.90;;;;;;4971548;28;20648;-77
2023/10/16 01:00:23;;;;;;;6.47;2.20;;;6.90;99.90;;;;;;4971994;28;20199;-74
2023/10/16 01:02:52;;;;;;;5.67;2.00;;;7.00;99.90;;;;;;4972808;28;20200;-77
2023/10/16 01:05:29;;;;;;;6.90;2.40;;;7.00;99.90;;;;;;4954680;28;20587;-74
2023/10/16 01:08:05;;;;;;;4.50;2.00;;;6.80;99.90;;;;;;4972916;28;20177;-76
2023/10/16 01:10:43;;;;;;;6.33;1.70;;;6.90;99.90;;;;;;4972706;28;20200;-76
2023/10/16 01:13:13;;;;;;;5.30;2.10;;;7.30;99.90;;;;;;4974387;28;20205;-77
2023/10/16 01:15:46;;;;;;;9.37;2.50;;;7.10;99.90;;;;;;4959104;28;20209;-75
2023/10/16 01:18:17;;;;;;;5.77;1.73;;;7.20;99.90;;;;;;4976356;28;20284;-75
2023/10/16 01:20:48;;;;;;;5.97;2.00;;;7.00;99.90;;;;;;4975506;28;20196;-74
2023/10/16 01:23:25;;;;;;;4.97;2.00;;;7.10;99.90;;;;;;4975559;28;20293;-76
2023/10/16 01:26:01;;;;;;;8.47;2.10;;;7.10;99.90;;;;;;4975621;28;20212;-76
2023/10/16 01:28:30;;;;;;;5.53;1.73;;;7.10;99.90;;;;;;4972972;28;20250;-81
2023/10/16 01:31:04;;;;;;;4.73;1.87;;;7.30;99.90;;;;;;4973603;28;20232;-80
2023/10/16 01:33:35;;;;;;;4.23;1.70;;;7.30;99.90;;;;;;4973604;28;20217;-76
2023/10/16 01:36:07;;;;;;;5.37;2.10;;;7.10;99.90;;;;;;4975262;28;20227;-82
2023/10/16 01:38:36;;;;;;;6.30;1.83;;;7.10;99.90;;;;;;4958170;28;20216;-75
2023/10/16 01:41:24;;;;;;;5.53;2.07;;;7.10;99.90;;;;;;4976192;28;20186;-80
2023/10/16 01:43:55;;;;;;;5.87;2.00;;;7.10;99.90;;;;;;4974705;28;20189;-81
2023/10/16 01:46:24;;;;;;;4.90;2.00;;;7.20;99.90;;;;;;4975494;28;20224;-75
2023/10/16 01:49:04;;;;;;;4.27;1.70;;;7.20;99.90;;;;;;4974723;28;20212;-78
2023/10/16 01:51:35;;;;;;;5.17;2.03;;;7.40;99.90;;;;;;4973982;28;20539;-74
2023/10/16 01:54:12;;;;;;;4.93;1.77;;;7.10;99.90;;;;;;4973846;28;20203;-77
2023/10/16 01:57:01;;;;;;;5.80;2.10;;;7.20;99.90;;;;;;4959810;28;20258;-80
2023/10/16 01:59:32;;;;;;;5.53;1.87;;;7.30;99.90;;;;;;4973284;28;20231;-80
2023/10/16 02:02:05;;;;;;;5.03;1.73;;;7.20;99.90;;;;;;4975207;28;20201;-75
2023/10/16 02:04:34;;;;;;;6.63;2.13;;;7.20;99.90;;;;;;4975334;28;20204;-80
2023/10/16 02:07:08;;;;;;;5.90;2.23;;;7.30;99.90;;;;;;4973359;28;20259;-82
2023/10/16 02:09:39;;;;;;;5.23;2.00;;;7.30;99.90;;;;;;4959355;28;20204;-81
2023/10/16 02:12:16;;;;;;;3.43;1.77;;;7.20;99.90;;;;;;4958644;28;20267;-82
2023/10/16 02:14:45;;;;;;;5.43;2.07;;;7.10;99.90;;;;;;4975191;28;20207;-81
2023/10/16 02:17:18;;;;;;;5.60;1.73;;;7.10;99.90;;;;;;4973932;28;20192;-80
2023/10/16 02:19:48;;;;;;;4.57;1.80;;;7.10;99.90;;;;;;4957680;28;20208;-80
2023/10/16 02:22:22;;;;;;;5.77;1.80;;;7.20;99.90;;;;;;4973996;28;20224;-80
2023/10/16 02:24:51;;;;;;;4.00;1.60;;;7.40;99.90;;;;;;4972867;28;20641;-82
2023/10/16 02:27:21;;;;;;;5.23;1.83;;;7.20;99.90;;;;;;4973939;28;20190;-75
2023/10/16 02:29:52;;;;;;;3.27;1.70;;;7.40;99.90;;;;;;4973526;28;20200;-75
2023/10/16 02:32:26;;;;;;;5.43;2.20;;;7.10;99.90;;;;;;4957245;28;20734;-83
2023/10/16 02:35:00;;;;;;;6.17;1.77;;;7.20;99.90;;;;;;4957216;28;20215;-74
2023/10/16 02:37:29;;;;;;;6.27;2.30;;;7.20;99.90;;;;;;4975414;28;20227;-81
2023/10/16 02:39:56;;;;;;;6.23;2.07;;;7.20;99.90;;;;;;4957787;28;20568;-75
2023/10/16 02:42:26;;;;;;;7.30;2.37;;;7.20;99.90;;;;;;4974203;28;20248;-81
2023/10/16 02:44:57;;;;;;;5.63;2.50;;;7.30;99.90;;;;;;4972850;28;20330;-82
2023/10/16 02:47:37;;;;;;;5.27;1.90;;;7.40;99.90;;;;;;4958350;28;20203;-80
2023/10/16 02:50:08;;;;;;;5.70;1.93;;;7.20;99.90;;;;;;4973702;28;20199;-80
2023/10/16 02:53:00;;;;;;;9.03;2.30;;;7.30;99.90;;;;;;4973040;28;20575;-80
2023/10/16 02:55:30;;;;;;;5.37;2.10;;;7.50;99.90;;;;;;4973004;28;20225;-82
2023/10/16 02:58:04;;;;;;;6.30;2.10;;;7.20;99.90;;;;;;4973035;28;20192;-73
2023/10/16 03:00:43;;;;;;;4.23;2.00;;;7.30;99.90;;;;;;4973526;28;20191;-82
2023/10/16 03:03:21;;;;;;;5.00;2.03;;;7.30;99.90;;;;;;4973013;28;20244;-74
2023/10/16 03:05:58;;;;;;;5.37;2.30;;;7.30;99.90;;;;;;4956901;28;20258;-80
2023/10/16 03:08:32;;;;;;;6.90;2.43;;;7.30;99.90;;;;;;4975176;28;20200;-81
2023/10/16 03:11:13;;;;;;;5.00;2.33;;;7.50;99.90;;;;;;4956412;28;20285;-77
2023/10/16 03:13:43;;;;;;;4.50;1.83;;;7.50;99.90;;;;;;4956773;28;20249;-75
2023/10/16 03:16:16;;;;;;;8.37;2.40;;;7.40;99.90;;;;;;4973477;28;20200;-76
2023/10/16 03:18:48;;;;;;;5.43;2.00;;;7.30;99.90;;;;;;4953206;28;20205;-77
2023/10/16 03:23:50;;;;;;;4.30;2.07;;;7.20;99.90;;;;;;4972485;28;20209;-75
2023/10/16 03:28:53;;;;;;;6.93;2.07;;;7.20;99.90;;;;;;4973536;28;20281;-77
2023/10/16 03:31:23;;;;;;;6.83;2.10;;;7.20;99.90;;;;;;4971213;28;20250;-82
2023/10/16 03:33:54;;;;;;;5.17;2.07;;;7.50;99.90;;;;;;4971865;28;20199;-83
2023/10/16 03:36:23;;;;;;;4.57;2.07;;;7.30;99.90;;;;;;4956199;28;20279;-82
2023/10/16 03:38:51;;;;;;;6.10;2.17;;;7.30;99.90;;;;;;4972324;28;20202;-82
2023/10/16 03:44:15;;;;;;;4.53;2.10;;;7.40;99.90;;;;;;4972130;28;20201;-82
2023/10/16 03:46:48;;;;;;;4.73;2.10;;;7.30;99.90;;;;;;4976164;28;20225;-82
2023/10/16 03:49:18;;;;;;;6.60;2.30;;;7.30;99.90;;;;;;4957730;28;20207;-75
2023/10/16 03:51:48;;;;;;;7.60;2.47;;;7.30;99.90;;;;;;4973129;28;20559;-84
2023/10/16 03:54:30;;;;;;;7.13;2.50;;;7.60;99.90;;;;;;4957279;28;20207;-83
2023/10/16 03:57:20;;;;;;;5.87;3.47;;;7.40;99.90;;;;;;4957770;28;20613;-75
2023/10/16 03:59:48;;;;;;;5.43;2.57;;;7.30;99.90;;;;;;4971145;28;20215;-75
2023/10/16 04:02:23;;;;;;;6.90;2.70;;;7.50;99.90;;;;;;4971109;28;20201;-76
2023/10/16 04:05:29;;;;;;;6.87;3.10;;;7.20;99.90;;;;;;4970573;28;20560;-81
2023/10/16 04:07:54;;;;;;;6.67;2.80;;;7.10;99.90;;;;;;4972892;28;20280;-82
2023/10/16 04:10:30;;;;;;;4.13;2.60;;;7.20;99.90;;;;;;4956246;28;20748;-81
2023/10/16 04:13:54;;;;;;;7.33;2.67;;;7.20;99.90;;;;;;4971019;28;20206;-83
2023/10/16 04:22:16;;;;;;;8.37;2.90;;;7.20;99.90;;;;;;4972314;28;20216;-73
2023/10/16 04:24:59;;;;;;;8.40;2.63;;;7.10;99.90;;;;;;4970480;28;20710;-76
2023/10/16 04:28:18;;;;;;;5.93;3.10;;;7.10;99.90;;;;;;4972167;28;20208;-82
2023/10/16 04:34:52;;;;;;;7.07;3.13;;;7.00;99.90;;;;;;4893617;29;20206;-81
2023/10/16 04:37:40;;;;;;;7.20;3.00;;;7.00;99.90;;;;;;4893621;29;20312;-75
2023/10/16 04:46:31;;;;;;;4.87;2.90;;;6.80;99.90;;;;;;4879708;29;20226;-81
2023/10/16 04:49:03;;;;;;;6.93;3.07;;;7.10;99.90;;;;;;4898020;29;20305;-81
2023/10/16 04:51:52;;;;;;;5.40;2.60;;;7.10;99.90;;;;;;4896902;29;20313;-82
2023/10/16 04:54:37;;;;;;;9.17;2.90;;;7.00;99.90;;;;;;4898320;29;20227;-82
2023/10/16 07:06:42;;;;;;;4.67;2.40;;;7.90;99.90;;;;;;5595094;24;20214;-80
2023/10/16 07:09:13;;;;;;;6.90;2.37;;;7.80;99.90;;;;;;4821922;29;20618;-79
2023/10/16 07:11:52;;;;;;;7.77;2.20;;;7.90;99.90;;;;;;4822601;29;20206;-81
2023/10/16 07:14:47;;;;;;;6.40;2.30;;;7.90;99.90;;;;;;4823312;29;20204;-82
2023/10/16 07:17:33;;;;;;;8.27;2.70;;;7.90;99.90;;;;;;4821601;29;20297;-76
2023/10/16 07:20:17;;;;;;;5.37;2.50;;;7.90;99.90;;;;;;4804603;29;20205;-82
2023/10/16 07:22:52;;;;;;;5.87;2.30;;;8.00;99.90;;;;;;4822150;29;20310;-80
2023/10/16 07:28:51;;;;;;;7.67;2.33;;;8.00;99.90;;;;;;4819024;29;20249;-80
2023/10/16 07:31:35;;;;;;;6.43;2.60;;;7.90;99.90;;;;;;4820804;29;20279;-82
2023/10/16 07:34:20;;;;;;;5.93;2.20;;;8.00;99.90;;;;;;4804227;29;20666;-82
2023/10/16 07:37:09;;;;;;;4.07;1.97;;;8.00;99.90;;;;;;4807056;29;20316;-84
2023/10/16 07:39:58;;;;;;;6.03;2.30;;;8.10;99.90;;;;;;4809628;29;20945;-81
2023/10/16 07:42:29;;;;;;;6.60;2.20;;;8.00;99.90;;;;;;4822116;29;20650;-83
2023/10/16 07:45:04;;;;;;;6.60;2.10;;;8.20;99.90;;;;;;4822575;29;20203;-81
2023/10/16 07:47:32;;;;;;;4.93;1.80;;;8.00;99.90;;;;;;4824197;29;20219;-82
2023/10/16 07:55:39;;;;;;;5.27;2.00;;;8.20;99.90;;;;;;5810705;23;20195;-81
2023/10/16 07:58:23;;;;;;;5.50;1.70;;;8.70;99.90;;;;;;4822016;29;20562;-83
2023/10/16 08:01:16;;;;;;;5.60;2.00;;;8.30;99.90;;;;;;4807427;29;20686;-74
2023/10/16 08:03:49;;;;;;;6.33;2.33;;;8.50;99.90;;;;;;4822664;29;20198;-76
2023/10/16 08:06:24;;;;;;;5.97;1.90;;;8.70;99.90;;;;;;4822078;29;20689;-77
2023/10/16 08:11:58;;;;;;;8.27;2.27;;;8.60;99.90;;;;;;4822840;29;20297;-77
2023/10/16 08:14:31;;;;;;;6.33;1.60;;;8.80;99.90;;;;;;4822924;29;20203;-82
2023/10/16 08:17:14;;;;;;;6.40;1.70;;;8.80;99.90;;;;;;4823680;29;20254;-79
2023/10/16 08:19:45;;;;;;;6.20;1.73;;;8.80;99.90;;;;;;4823707;29;20238;-83
2023/10/16 08:22:22;;;;;;;6.20;2.00;;;8.90;99.90;;;;;;4824200;29;20221;-77
2023/10/16 08:24:57;;;;;;;7.13;2.00;;;8.90;99.90;;;;;;4822081;29;20198;-76
2023/10/16 08:27:47;;;;;;;3.57;1.90;;;9.10;99.90;;;;;;4820215;29;20731;-75
2023/10/16 08:30:33;;;;;;;4.77;1.80;;;9.10;99.90;;;;;;4821453;29;20294;-76
2023/10/16 08:33:08;;;;;;;4.23;1.80;;;8.90;99.90;;;;;;4821503;29;20293;-79
2023/10/16 08:35:58;;;;;;;6.77;2.10;;;8.90;99.90;;;;;;4822257;29;20202;-76
2023/10/16 08:38:32;;;;;;;4.37;2.00;;;9.10;99.90;;;;;;4822279;29;20223;-78
2023/10/16 08:41:14;;;;;;;6.50;2.30;;;9.10;99.90;;;;;;4821823;29;20202;-82
2023/10/16 08:44:17;;;;;;;5.37;1.77;;;8.90;99.90;;;;;;4820232;29;20244;-81
2023/10/16 08:47:11;;;;;;;6.07;1.90;;;9.20;99.90;;;;;;4821367;29;20233;-81
2023/10/16 08:49:53;;;;;;;5.77;2.00;;;9.20;99.90;;;;;;4821075;29;20536;-77
2023/10/16 08:52:34;;;;;;;5.03;1.80;;;9.30;99.90;;;;;;4822783;29;20218;-78
2023/10/16 08:55:15;;;;;;;6.83;2.00;;;9.40;99.90;;;;;;4822106;29;20193;-82
2023/10/16 08:57:48;;;;;;;7.67;1.70;;;9.20;99.90;;;;;;4820969;29;20187;-83
2023/10/16 09:00:23;;;;;;;4.37;1.80;;;9.20;99.90;;;;;;4821839;29;20268;-76
2023/10/16 09:03:05;;;;;;;6.30;1.87;;;9.10;99.90;;;;;;4806029;29;20229;-82
2023/10/16 09:05:43;;;;;;;6.07;2.10;;;8.90;99.90;;;;;;4821096;29;20596;-77
2023/10/16 09:08:14;;;;;;;7.93;2.27;;;9.00;99.90;;;;;;4821271;29;20223;-79
2023/10/16 09:10:44;;;;;;;4.87;1.97;;;9.00;99.90;;;;;;4820672;29;20214;-79
2023/10/16 09:13:35;;;;;;;4.10;2.10;;;8.80;99.90;;;;;;4820249;29;20213;-80
2023/10/16 09:16:15;;;;;;;6.83;2.00;;;9.00;99.90;;;;;;4821245;29;20217;-79
2023/10/16 09:18:59;;;;;;;6.63;1.93;;;9.00;99.90;;;;;;4750998;30;20216;-84
2023/10/16 09:35:32;;;;;;;7.53;2.00;;;8.90;99.90;;;;;;5580648;23;20237;-79
2023/10/16 09:38:42;;;;;;;5.23;1.97;;;9.00;99.90;;;;;;4804389;29;20207;-80
2023/10/16 09:41:40;;;;;;;5.93;2.07;;;8.70;99.90;;;;;;4802925;29;20211;-78
2023/10/16 09:44:37;;;;;;;5.43;2.03;;;8.90;99.90;;;;;;4807931;29;20226;-87
2023/10/16 09:47:35;;;;;;;4.00;1.70;;;8.70;99.90;;;;;;4802488;29;20258;-78
2023/10/16 09:50:21;;;;;;;4.60;1.40;;;8.70;99.90;;;;;;4789253;29;20635;-79
2023/10/16 09:52:54;;;;;;;5.07;2.27;;;8.80;99.90;;;;;;4817914;29;20321;-79
2023/10/16 09:56:50;;;;;;;5.10;1.80;;;8.80;99.90;;;;;;4762148;29;20344;-79
2023/10/16 09:59:40;;;;;;;4.03;2.03;;;8.80;99.90;;;;;;4765792;30;20228;-80
2023/10/16 10:02:59;;;;;;;4.03;1.77;;;8.80;99.90;;;;;;4753862;30;20189;-84
2023/10/16 10:06:20;;;;;;;3.87;1.70;;;8.50;99.90;;;;;;5221294;24;20302;-81
2023/10/16 10:09:53;;;;;;;5.63;2.10;;;8.50;99.90;;;;;;4822428;29;20252;-80
2023/10/16 10:13:29;;;;;;;5.80;1.90;;;8.60;99.90;;;;;;4769025;30;20210;-90
2023/10/16 10:20:59;;;;;;;5.43;1.77;;;8.60;99.90;;;;;;4746665;30;20228;-80
2023/10/16 10:23:36;;;;;;;6.33;1.90;;;8.70;99.90;;;;;;4749827;30;20701;-79
2023/10/16 10:26:36;;;;;;;5.20;1.80;;;8.80;99.90;;;;;;4735051;30;20221;-89
2023/10/16 10:29:09;;;;;;;7.00;1.80;;;8.80;99.90;;;;;;4751326;30;20217;-86
2023/10/16 10:31:41;;;;;;;5.90;1.77;;;9.00;99.90;;;;;;4740392;30;20210;-85
2023/10/16 10:35:03;;;;;;;6.60;1.90;;;9.20;99.90;;;;;;4736440;30;20288;-87
2023/10/16 10:41:27;;;;;;;5.83;2.00;;;9.10;99.90;;;;;;4700115;30;20465;-80
2023/10/16 10:47:00;;;;;;;3.70;1.80;;;9.30;99.90;;;;;;4668597;30;20609;-81
2023/10/16 10:49:35;;;;;;;5.80;1.90;;;9.50;99.90;;;;;;4697455;30;20204;-86
2023/10/16 10:52:09;;;;;;;9.57;2.17;;;9.70;99.90;;;;;;4697182;30;20691;-88
2023/10/16 10:55:21;;;;;;;4.00;1.70;;;9.50;99.90;;;;;;4697446;30;20552;-85
2023/10/16 10:57:58;;;;;;;5.67;1.80;;;10.20;99.90;;;;;;4683395;30;20741;-89
2023/10/16 11:03:33;;;;;;;6.30;1.50;;;10.60;99.90;;;;;;4681751;30;20812;-79
2023/10/16 11:06:02;;;;;;;8.77;2.10;;;10.80;99.90;;;;;;4667884;30;20239;-87
2023/10/16 11:08:41;;;;;;;6.87;1.70;;;10.50;99.90;;;;;;4697335;30;20703;-78
2023/10/16 11:11:10;;;;;;;4.83;1.57;;;10.50;99.90;;;;;;4682043;30;20227;-85
2023/10/16 11:13:48;;;;;;;3.60;1.50;;;10.50;99.90;;;;;;4698384;30;20265;-81
2023/10/16 11:16:18;;;;;;;7.17;2.33;;;10.30;99.90;;;;;;4697152;30;20223;-84
2023/10/16 11:18:58;;;;;;;6.50;1.90;;;10.30;99.90;;;;;;4695378;30;20298;-73
2023/10/16 11:21:27;;;;;;;4.13;1.90;;;10.30;99.90;;;;;;4730284;30;20234;-74
2023/10/16 11:23:57;;;;;;;5.87;1.80;;;10.20;99.90;;;;;;4786974;29;20254;-83
2023/10/16 11:26:28;;;;;;;5.87;1.87;;;9.80;99.90;;;;;;4823105;29;20289;-82
2023/10/16 11:29:00;;;;;;;5.70;2.20;;;9.80;99.90;;;;;;4822335;29;20253;-75
2023/10/16 11:31:28;;;;;;;8.70;2.60;;;9.60;99.90;;;;;;4823029;29;20222;-74
2023/10/16 11:34:06;;;;;;;8.57;2.20;;;9.30;99.90;;;;;;4823103;29;20289;-82
2023/10/16 11:36:50;;;;;;;7.73;1.90;;;9.10;99.90;;;;;;4821386;29;20691;-82
2023/10/16 11:39:21;;;;;;;4.47;1.70;;;9.10;99.90;;;;;;4821797;29;20245;-86
2023/10/16 11:42:02;;;;;;;6.17;2.00;;;9.10;99.90;;;;;;4822278;29;20225;-86
2023/10/16 11:44:37;;;;;;;4.80;2.00;;;9.10;99.90;;;;;;4822454;29;20189;-80
2023/10/16 11:47:18;;;;;;;6.43;2.20;;;9.10;99.90;;;;;;4823138;29;20224;-85
2023/10/16 11:50:08;;;;;;;5.80;2.20;;;9.30;99.90;;;;;;4821047;29;20227;-85
2023/10/16 11:52:46;;;;;;;6.13;2.10;;;9.30;99.90;;;;;;4807690;29;20230;-86
2023/10/16 11:55:23;;;;;;;7.77;2.50;;;9.40;99.90;;;;;;4825321;29;20209;-85
2023/10/16 11:57:53;;;;;;;6.03;2.20;;;9.10;99.90;;;;;;4822155;29;20206;-83
2023/10/16 12:00:30;;;;;;;5.57;2.50;;;9.00;99.90;;;;;;4822247;29;20213;-79
2023/10/16 12:02:59;;;;;;;6.67;2.00;;;9.00;99.90;;;;;;4819842;29;20251;-79
2023/10/16 12:05:28;;;;;;;8.40;2.40;;;9.00;99.90;;;;;;4822491;29;20683;-84
2023/10/16 12:07:56;;;;;;;4.10;2.30;;;9.30;99.90;;;;;;4822293;29;20218;-85
2023/10/16 12:10:29;;;;;;;7.00;2.40;;;9.10;99.90;;;;;;4823339;29;20202;-79
2023/10/16 12:13:22;;;;;;;5.10;2.10;;;9.00;99.90;;;;;;4821660;29;20205;-81
2023/10/16 12:15:53;;;;;;;11.13;4.00;;;9.10;99.90;;;;;;4826685;29;20251;-79
2023/10/16 12:18:37;;;;;;;5.10;2.20;;;9.10;99.90;;;;;;4823918;29;20651;-80
2023/10/16 12:21:28;;;;;;;8.43;2.40;;;9.40;99.90;;;;;;4821612;29;20254;-87
2023/10/16 12:24:02;;;;;;;6.70;1.90;;;9.70;99.90;;;;;;4821671;29;20281;-86
2023/10/16 12:26:42;;;;;;;8.07;2.00;;;9.50;99.90;;;;;;4822494;29;20178;-81
2023/10/16 12:29:11;;;;;;;5.00;1.90;;;9.50;99.90;;;;;;4822646;29;20689;-79
2023/10/16 12:31:49;;;;;;;5.93;1.80;;;9.40;99.90;;;;;;4822206;29;20547;-80
2023/10/16 12:34:17;;;;;;;6.97;2.10;;;9.10;99.90;;;;;;4822142;29;20228;-84
2023/10/16 12:37:07;;;;;;;6.63;2.20;;;9.10;99.90;;;;;;4823190;29;20214;-76
2023/10/16 12:39:52;;;;;;;10.87;2.40;;;9.10;99.90;;;;;;4820794;29;20194;-82
2023/10/16 12:42:21;;;;;;;6.80;2.53;;;9.10;99.90;;;;;;4822376;29;20286;-86
2023/10/16 12:45:12;;;;;;;5.87;2.33;;;9.30;99.90;;;;;;4822351;29;20591;-78
2023/10/16 12:49:06;;;;;;;;;;;;;;;;;;;;;
2023/10/16 12:52:32;;;;;;;6.10;2.47;;;9.20;99.90;;;;;;4805636;29;20321;-80
2023/10/16 12:55:41;;;;;;;6.50;3.03;;;9.20;99.90;;;;;;4789191;29;20228;-79
2023/10/16 12:58:18;;;;;;;4.87;2.40;;;9.30;99.90;;;;;;4789429;29;20214;-81
2023/10/16 13:01:10;;;;;;;6.27;2.83;;;9.30;99.90;;;;;;4804240;29;20286;-81
2023/10/16 13:03:45;;;;;;;12.13;4.70;;;9.20;99.90;;;;;;4790783;29;20210;-85
2023/10/16 13:06:28;;;;;;;4.47;2.60;;;9.40;99.90;;;;;;4803479;29;20230;-84
2023/10/16 13:09:37;;;;;;;;;;;;;;;;;;;;;
2023/10/16 13:12:36;;;;;;;8.37;2.50;;;9.30;99.90;;;;;;4821222;29;20235;-79
2023/10/16 13:15:31;;;;;;;10.97;2.97;;;9.50;99.90;;;;;;4822855;29;20263;-79
2023/10/16 13:18:40;;;;;;;5.30;2.53;;;9.30;99.90;;;;;;4822945;29;20228;-87
2023/10/16 13:21:41;;;;;;;4.63;2.60;;;9.80;99.90;;;;;;4820721;29;20226;-87
2023/10/16 13:25:11;;;;;;;8.97;2.77;;;9.80;99.90;;;;;;4809131;29;20698;-81
2023/10/16 13:28:11;;;;;;;8.87;2.60;;;9.80;99.90;;;;;;4806458;29;20226;-87
2023/10/16 13:30:53;;;;;;;6.90;2.73;;;9.80;99.90;;;;;;4823539;29;20198;-87
2023/10/16 13:33:41;;;;;;;8.53;2.70;;;9.80;99.90;;;;;;4810566;29;20279;-79
2023/10/16 13:37:00;;;;;;;6.53;2.83;;;10.00;99.90;;;;;;4821189;29;20673;-78
2023/10/16 13:48:21;;;;;;;7.33;2.80;;;10.00;99.90;;;;;;5273538;24;20247;-85
2023/10/16 13:59:10;;;;;;;;;;;;;;;;;;;;;
2023/10/16 14:02:37;;;;;;;6.97;2.50;;;9.80;99.90;;;;;;4744971;29;20213;-86
2023/10/16 14:12:37;;;;;;;5.37;2.40;;;9.80;99.90;;;;;;4737588;30;20204;-82
2023/10/16 14:15:15;;;;;;;7.53;2.43;;;9.70;99.90;;;;;;4785882;30;20221;-84
2023/10/16 14:17:47;;;;;;;7.07;2.60;;;9.80;99.90;;;;;;4785504;29;20204;-83
2023/10/16 14:20:33;;;;;;;5.37;2.30;;;9.70;99.90;;;;;;4785079;30;20204;-75
2023/10/16 14:23:14;;;;;;;8.57;2.60;;;9.80;99.90;;;;;;4753215;30;20216;-74
2023/10/16 14:25:47;;;;;;;6.53;2.40;;;9.70;99.90;;;;;;4767683;30;20719;-84
2023/10/16 14:28:40;;;;;;;8.83;2.67;;;9.50;99.90;;;;;;4767448;30;20321;-76
2023/10/16 14:31:08;;;;;;;8.93;2.60;;;9.50;99.90;;;;;;4766869;30;20624;-75
2023/10/16 14:33:39;;;;;;;8.10;2.07;;;9.70;99.90;;;;;;4766833;30;20739;-74
2023/10/16 14:36:16;;;;;;;6.23;2.33;;;9.60;99.90;;;;;;4767847;30;20720;-75
2023/10/16 14:38:44;;;;;;;5.17;2.40;;;9.10;99.90;;;;;;4767371;30;20269;-76
2023/10/16 14:41:19;;;;;;;10.10;2.60;;;9.10;99.90;;;;;;4767153;30;20674;-75
2023/10/16 14:43:46;;;;;;;4.63;2.13;;;9.30;99.90;;;;;;4766400;30;20214;-76
2023/10/16 14:46:25;;;;;;;6.90;2.63;;;8.90;99.90;;;;;;4753624;30;20219;-74
2023/10/16 14:48:59;;;;;;;9.17;2.63;;;8.90;99.90;;;;;;4801306;29;20243;-84
2023/10/16 14:51:37;;;;;;;8.27;3.07;;;8.90;99.90;;;;;;4806560;29;20251;-75
2023/10/16 14:54:12;;;;;;;8.30;2.60;;;9.00;99.90;;;;;;4804670;29;20559;-76
2023/10/16 14:56:44;;;;;;;8.73;2.70;;;8.90;99.90;;;;;;4804825;29;20211;-76
2023/10/16 14:59:37;;;;;;;6.97;2.63;;;9.00;99.90;;;;;;4806416;29;20202;-85
2023/10/16 15:02:13;;;;;;;8.37;2.70;;;9.00;99.90;;;;;;4805668;29;20587;-84
2023/10/16 15:04:47;;;;;;;6.47;2.90;;;8.90;99.90;;;;;;4806093;29;20203;-84
2023/10/16 15:07:18;;;;;;;8.03;2.63;;;8.80;99.90;;;;;;4804597;29;20250;-84
2023/10/16 15:09:49;;;;;;;8.43;2.80;;;8.80;99.90;;;;;;4805481;29;20628;-84
2023/10/16 15:12:19;;;;;;;6.83;2.60;;;8.70;99.90;;;;;;4805719;29;20261;-85
2023/10/16 15:15:00;;;;;;;8.30;2.63;;;9.00;99.90;;;;;;4804443;29;20278;-85
2023/10/16 15:17:28;;;;;;;6.83;2.87;;;8.90;99.90;;;;;;4805940;29;20224;-83
2023/10/16 15:20:03;;;;;;;9.53;3.47;;;8.60;99.90;;;;;;4805679;29;20192;-87
2023/10/16 15:22:32;;;;;;;6.73;2.77;;;8.90;99.90;;;;;;4820346;29;20224;-84
2023/10/16 15:25:03;;;;;;;6.90;2.50;;;8.60;99.90;;;;;;4805852;29;20660;-76
2023/10/16 15:27:46;;;;;;;7.53;3.10;;;8.70;99.90;;;;;;4805305;29;20198;-84
2023/10/16 15:30:21;;;;;;;5.40;2.67;;;8.60;99.90;;;;;;4804981;29;20237;-77
2023/10/16 15:32:52;;;;;;;4.80;2.83;;;8.60;99.90;;;;;;4805787;29;20205;-83
2023/10/16 15:35:33;;;;;;;7.43;2.50;;;8.70;99.90;;;;;;4805683;29;20275;-77
2023/10/16 15:38:07;;;;;;;7.23;2.90;;;8.50;99.90;;;;;;4805278;29;20251;-75
2023/10/16 15:40:37;;;;;;;7.83;2.97;;;8.70;99.90;;;;;;4803984;29;20220;-75
2023/10/16 15:43:10;;;;;;;10.03;3.37;;;8.70;99.90;;;;;;4805232;29;20206;-84
2023/10/16 15:45:44;;;;;;;7.00;3.03;;;8.50;99.90;;;;;;4805587;29;20230;-86
2023/10/16 15:48:12;;;;;;;10.93;3.37;;;8.40;99.90;;;;;;4819344;29;20226;-85
2023/10/16 15:50:47;;;;;;;9.10;3.60;;;8.40;99.90;;;;;;4818979;29;20200;-76
2023/10/16 15:53:16;;;;;;;7.00;3.40;;;8.30;99.90;;;;;;4805416;29;20198;-85
2023/10/16 15:55:49;;;;;;;8.30;2.90;;;8.30;99.90;;;;;;4804344;29;20305;-77
2023/10/16 15:58:17;;;;;;;11.67;3.67;;;8.30;99.90;;;;;;4805143;29;20284;-85
2023/10/16 16:00:48;;;;;;;11.20;3.90;;;8.20;99.90;;;;;;4819527;29;20203;-78
2023/10/16 16:03:19;;;;;;;8.07;3.40;;;8.20;99.90;;;;;;4789027;29;20233;-76
2023/10/16 16:05:47;;;;;;;8.67;3.17;;;8.30;99.90;;;;;;4804817;29;20280;-84
2023/10/16 16:08:27;;;;;;;12.83;3.87;;;8.30;99.90;;;;;;4803852;29;20403;-77
2023/10/16 16:11:04;;;;;;;11.87;3.43;;;8.30;99.90;;;;;;4803367;29;20202;-76
2023/10/16 16:13:33;;;;;;;7.57;3.27;;;8.30;99.90;;;;;;4804693;29;20728;-85
2023/10/16 16:16:01;;;;;;;10.27;3.10;;;8.30;99.90;;;;;;4804806;29;20294;-74
2023/10/16 16:18:30;;;;;;;9.83;3.77;;;8.40;99.90;;;;;;4804055;29;20195;-76
2023/10/16 16:21:00;;;;;;;9.63;3.77;;;8.30;99.90;;;;;;4803977;29;20241;-75
2023/10/16 16:23:28;;;;;;;9.07;3.53;;;8.30;99.90;;;;;;4804246;29;20206;-85
2023/10/16 16:25:56;;;;;;;8.37;3.47;;;8.30;99.90;;;;;;4805053;29;20314;-85
2023/10/16 16:28:24;;;;;;;9.73;3.97;;;8.50;99.90;;;;;;4804823;29;20225;-81
2023/10/16 16:31:01;;;;;;;10.80;3.70;;;8.20;99.90;;;;;;4789477;29;20214;-83
2023/10/16 16:33:36;;;;;;;9.73;3.83;;;8.20;99.90;;;;;;4804489;29;20558;-76
2023/10/16 16:36:11;;;;;;;12.60;3.83;;;8.30;99.90;;;;;;4803922;29;20218;-77
2023/10/16 16:38:40;;;;;;;6.53;3.50;;;8.20;99.90;;;;;;4804221;29;20234;-78
2023/10/16 16:42:04;;;;;;;;;;;;;;;;;;;;;
2023/10/16 16:54:27;;;;;;;12.73;3.60;;;8.30;99.90;;;;;;4720392;30;20198;-82
2023/10/16 16:57:47;;;;;;;8.10;4.10;;;8.30;99.90;;;;;;4717116;30;20648;-81
2023/10/16 17:01:31;;;;;;;11.73;4.67;;;8.20;99.90;;;;;;4717690;30;20209;-82
2023/10/16 17:04:15;;;;;;;11.43;4.57;;;8.30;99.90;;;;;;4718777;30;20212;-81
2023/10/16 17:07:30;;;;;;;10.63;4.77;;;8.60;99.90;;;;;;4731386;30;20265;-79
2023/10/16 17:15:11;;;;;;;16.03;5.40;;;8.40;99.90;;;;;;4695376;30;20213;-88
2023/10/16 17:18:07;;;;;;;14.10;5.60;;;8.10;99.90;;;;;;4685173;30;20214;-81
2023/10/16 17:20:45;;;;;;;17.90;5.90;;;8.00;99.90;;;;;;4680913;30;20218;-82
2023/10/16 17:23:13;;;;;;;14.00;5.63;;;8.10;99.90;;;;;;4681556;30;20215;-80
2023/10/16 17:25:41;;;;;;;10.73;5.50;;;7.80;99.90;;;;;;4667470;30;20704;-81
2023/10/16 17:28:10;;;;;;;13.13;5.70;;;7.70;99.90;;;;;;4702175;30;20213;-81
2023/10/16 17:30:39;;;;;;;13.37;5.33;;;7.90;99.90;;;;;;4716106;30;20218;-81
2023/10/16 17:33:07;;;;;;;14.70;5.80;;;7.90;99.90;;;;;;4685874;30;20217;-81
2023/10/16 17:35:40;;;;;;;13.77;5.33;;;7.60;99.90;;;;;;4701770;30;20209;-82
2023/10/16 17:38:11;;;;;;;13.33;5.60;;;7.60;99.90;;;;;;4701244;30;20210;-82
2023/10/16 17:40:40;;;;;;;14.57;5.60;;;7.60;99.90;;;;;;4701243;30;20237;-82
2023/10/16 17:43:12;;;;;;;14.30;5.30;;;7.50;99.90;;;;;;4701594;30;20272;-84
2023/10/16 17:46:02;;;;;;;12.93;5.97;;;7.40;99.90;;;;;;4703920;30;20225;-82
2023/10/16 17:48:30;;;;;;;11.00;5.53;;;7.40;99.90;;;;;;4716819;30;20344;-81
2023/10/16 17:50:58;;;;;;;11.60;5.27;;;7.30;99.90;;;;;;4701374;30;20262;-82
2023/10/16 17:53:37;;;;;;;12.70;5.20;;;7.50;99.90;;;;;;4702439;30;20237;-82
2023/10/16 17:56:05;;;;;;;12.80;5.50;;;7.30;99.90;;;;;;4716340;30;20203;-80
2023/10/16 17:58:35;;;;;;;13.70;5.23;;;7.30;99.90;;;;;;4718554;30;20219;-83
2023/10/16 18:01:03;;;;;;;11.90;5.33;;;7.30;99.90;;;;;;4761748;30;20549;-81